Time;durP1;ratioP1;P1;durP2;ratioP2;P2;SDS_P1;SDS_P2;PMS_P1;PMS_P2;Temp;Humidity;BMP_temperature;BMP_pressure;BME280_temperature;BME280_humidity;BME280_pressure;Samples;Min_cycle;Max_cycle;Signal;HPM_P1;HPM_P2
2021/08/08 00:01:50;;;;;;;6.35;4.03;;;;;;;17.04;100.00;99743.31;4986165;28;20134;-75
2021/08/08 00:04:18;;;;;;;5.85;4.20;;;;;;;17.00;100.00;99742.78;5004488;28;20038;-75
2021/08/08 00:06:49;;;;;;;5.45;4.05;;;;;;;16.96;100.00;99744.06;4982699;28;20046;-75
2021/08/08 00:09:16;;;;;;;5.30;4.32;;;;;;;16.96;100.00;99744.06;4964325;28;20357;-75
2021/08/08 00:11:44;;;;;;;6.32;3.95;;;;;;;16.85;100.00;99745.16;4985607;28;20048;-74
2021/08/08 00:14:11;;;;;;;3.88;2.90;;;;;;;16.96;100.00;99750.22;4989519;28;20058;-75
2021/08/08 00:16:38;;;;;;;4.82;3.20;;;;;;;16.96;100.00;99744.06;4967614;28;20138;-75
2021/08/08 00:19:09;;;;;;;5.82;3.00;;;;;;;17.04;100.00;99748.63;4998309;28;20030;-76
2021/08/08 00:21:39;;;;;;;6.80;3.30;;;;;;;17.05;100.00;99747.63;4999938;28;20030;-75
2021/08/08 00:24:09;;;;;;;5.57;4.15;;;;;;;16.92;100.00;99746.19;4972151;28;20133;-75
2021/08/08 00:26:39;;;;;;;4.72;2.80;;;;;;;16.99;100.00;99751.75;4982057;28;20034;-75
2021/08/08 00:29:07;;;;;;;3.70;2.80;;;;;;;17.00;100.00;99747.28;4984651;28;20056;-75
2021/08/08 00:31:38;;;;;;;5.72;3.10;;;;;;;17.01;100.00;99754.25;4984259;28;20050;-77
2021/08/08 00:34:05;;;;;;;7.32;3.35;;;;;;;17.05;100.00;99752.97;4981911;28;20054;-76
2021/08/08 00:36:35;;;;;;;4.80;3.22;;;;;;;17.07;100.00;99758.97;5000240;28;20412;-75
2021/08/08 00:39:05;;;;;;;4.80;3.28;;;;;;;17.02;100.00;99759.44;5017168;28;20048;-76
2021/08/08 00:41:33;;;;;;;6.25;3.30;;;;;;;17.06;100.00;99762.59;5004269;28;20434;-76
2021/08/08 00:44:03;;;;;;;3.92;3.55;;;;;;;16.98;100.00;99779.34;4957116;28;20049;-75
2021/08/08 00:46:31;;;;;;;5.95;3.00;;;;;;;16.96;100.00;99773.31;5016610;28;20041;-75
2021/08/08 00:48:59;;;;;;;3.60;2.63;;;;;;;17.03;100.00;99774.41;4985853;28;20034;-75
2021/08/08 00:51:30;;;;;;;4.78;3.40;;;;;;;16.90;100.00;99768.63;4987619;28;20168;-76
2021/08/08 00:53:58;;;;;;;4.88;3.60;;;;;;;16.65;100.00;99771.00;4999002;28;20057;-76
2021/08/08 00:56:26;;;;;;;7.25;3.30;;;;;;;16.42;100.00;99765.25;4986762;28;20037;-77
2021/08/08 00:58:53;;;;;;;15.02;4.05;;;;;;;16.24;100.00;99761.72;4967969;28;20042;-77
2021/08/08 01:01:23;;;;;;;7.25;3.97;;;;;;;16.13;100.00;99764.59;5000578;28;20038;-76
2021/08/08 01:03:57;;;;;;;5.97;3.85;;;;;;;16.18;100.00;99757.84;5007194;28;20356;-76
2021/08/08 01:06:51;;;;;;;6.30;3.88;;;;;;;16.29;100.00;99762.13;4989198;28;20076;-77
2021/08/08 01:09:21;;;;;;;3.58;2.95;;;;;;;16.20;100.00;99755.88;4996637;28;20038;-78
2021/08/08 01:11:49;;;;;;;6.45;3.90;;;;;;;16.06;100.00;99755.53;4999902;28;20092;-76
2021/08/08 01:14:17;;;;;;;4.38;3.78;;;;;;;15.80;100.00;99758.84;4984358;28;20385;-77
2021/08/08 01:16:48;;;;;;;4.85;3.85;;;;;;;15.73;100.00;99752.44;4969394;28;20346;-76
2021/08/08 01:19:21;;;;;;;6.45;4.55;;;;;;;15.60;100.00;99755.38;4970967;28;20296;-76
2021/08/08 01:21:49;;;;;;;5.93;4.03;;;;;;;15.56;100.00;99758.47;4984269;28;20110;-76
2021/08/08 01:24:17;;;;;;;5.28;4.35;;;;;;;15.54;100.00;99749.84;4968961;28;20591;-78
2021/08/08 01:26:46;;;;;;;5.80;4.40;;;;;;;15.68;100.00;99752.06;4997850;28;20100;-76
2021/08/08 01:29:13;;;;;;;5.25;4.10;;;;;;;15.55;100.00;99752.31;4986424;28;20048;-76
2021/08/08 01:31:49;;;;;;;5.25;4.40;;;;;;;15.45;100.00;99756.81;4985806;28;20483;-76
2021/08/08 01:34:16;;;;;;;6.00;5.10;;;;;;;15.41;100.00;99763.41;5001859;28;20069;-76
2021/08/08 01:36:47;;;;;;;5.80;4.85;;;;;;;15.56;100.00;99761.13;4999781;28;20045;-75
2021/08/08 01:39:18;;;;;;;9.40;5.28;;;;;;;15.55;100.00;99756.81;4971726;28;20051;-75
2021/08/08 01:41:56;;;;;;;8.57;4.80;;;;;;;15.58;100.00;99761.81;4973440;28;20049;-76
2021/08/08 01:44:25;;;;;;;6.07;4.78;;;;;;;15.49;100.00;99762.66;5000176;28;20057;-76
2021/08/08 01:46:57;;;;;;;7.85;4.32;;;;;;;15.45;100.00;99760.31;4984084;28;20117;-75
2021/08/08 01:49:27;;;;;;;7.18;4.70;;;;;;;15.33;100.00;99761.44;5017970;28;20049;-76
2021/08/08 01:51:57;;;;;;;12.05;5.72;;;;;;;15.25;100.00;99765.78;5001748;28;20046;-77
2021/08/08 01:54:25;;;;;;;8.25;5.13;;;;;;;15.16;100.00;99770.09;4986110;28;20460;-76
2021/08/08 01:56:52;;;;;;;10.55;5.80;;;;;;;15.16;100.00;99762.16;4991376;28;20125;-77
2021/08/08 01:59:20;;;;;;;10.43;5.53;;;;;;;15.25;100.00;99763.97;5004063;28;20134;-75
2021/08/08 02:01:47;;;;;;;10.50;5.70;;;;;;;15.32;100.00;99759.78;4987225;28;20335;-77
2021/08/08 02:04:26;;;;;;;7.78;5.72;;;;;;;15.23;100.00;99757.97;4991963;28;20449;-75
2021/08/08 02:06:53;;;;;;;7.68;4.55;;;;;;;15.49;100.00;99757.34;4987954;28;20668;-76
2021/08/08 02:09:20;;;;;;;5.57;4.97;;;;;;;15.48;100.00;99753.88;4985271;28;20100;-76
2021/08/08 02:11:48;;;;;;;12.32;5.97;;;;;;;15.41;100.00;99744.84;5007536;28;20042;-76
2021/08/08 02:14:16;;;;;;;6.55;5.07;;;;;;;15.35;100.00;99748.88;4973404;28;20404;-74
2021/08/08 02:16:43;;;;;;;9.10;4.47;;;;;;;15.23;100.00;99755.31;4982593;28;20080;-77
2021/08/08 02:19:11;;;;;;;7.30;5.43;;;;;;;15.29;100.00;99757.41;4999202;28;20073;-76
2021/08/08 02:21:38;;;;;;;9.57;4.50;;;;;;;15.43;100.00;99756.13;4988692;28;20501;-75
2021/08/08 02:24:05;;;;;;;7.90;4.43;;;;;;;15.30;100.00;99760.88;4982176;28;20046;-75
2021/08/08 02:26:32;;;;;;;6.75;4.38;;;;;;;15.30;100.00;99767.03;5002214;28;20415;-76
2021/08/08 02:29:00;;;;;;;7.40;4.75;;;;;;;15.49;100.00;99771.47;4982563;28;20058;-76
2021/08/08 02:31:40;;;;;;;6.72;4.63;;;;;;;15.42;100.00;99773.03;4985208;28;20122;-77
2021/08/08 02:34:09;;;;;;;7.78;4.10;;;;;;;15.58;100.00;99767.09;4961251;28;20386;-76
2021/08/08 02:36:36;;;;;;;5.55;4.32;;;;;;;15.62;100.00;99764.03;4985624;28;20049;-78
2021/08/08 02:39:03;;;;;;;8.45;4.55;;;;;;;15.56;100.00;99761.94;4972924;28;20496;-76
2021/08/08 02:41:31;;;;;;;7.07;3.97;;;;;;;15.68;100.00;99766.16;5002027;28;20053;-76
2021/08/08 02:43:58;;;;;;;8.02;3.58;;;;;;;15.89;100.00;99760.63;4989443;28;20149;-76
2021/08/08 02:46:25;;;;;;;5.82;3.83;;;;;;;15.87;100.00;99761.75;4971695;28;20193;-76
2021/08/08 02:48:52;;;;;;;7.22;4.05;;;;;;;15.88;100.00;99763.44;5001229;28;20129;-76
2021/08/08 02:51:19;;;;;;;4.95;3.67;;;;;;;15.96;100.00;99768.84;4987329;28;20606;-76
2021/08/08 02:53:47;;;;;;;5.95;3.92;;;;;;;15.84;100.00;99770.84;4989500;28;20046;-75
2021/08/08 02:56:14;;;;;;;4.22;3.35;;;;;;;15.78;100.00;99775.91;5000912;28;20125;-77
2021/08/08 02:58:41;;;;;;;4.20;3.15;;;;;;;15.78;100.00;99786.50;5002358;28;20129;-77
2021/08/08 03:01:11;;;;;;;6.35;3.83;;;;;;;15.85;100.00;99782.28;4990272;28;20068;-76
2021/08/08 03:03:38;;;;;;;6.18;3.70;;;;;;;15.91;100.00;99793.19;4997401;28;20038;-74
2021/08/08 03:06:09;;;;;;;6.95;3.25;;;;;;;16.02;100.00;99793.97;5003122;28;20058;-76
2021/08/08 03:08:51;;;;;;;5.90;3.50;;;;;;;15.85;100.00;99803.50;5005154;28;20093;-75
2021/08/08 03:11:19;;;;;;;4.65;3.97;;;;;;;15.81;100.00;99803.00;4999489;28;20270;-77
2021/08/08 03:13:48;;;;;;;5.55;3.28;;;;;;;15.83;100.00;99813.47;4995120;28;20077;-77
2021/08/08 03:16:15;;;;;;;8.32;3.53;;;;;;;15.92;100.00;99815.25;5004698;28;20144;-76
2021/08/08 03:18:43;;;;;;;6.43;3.80;;;;;;;16.09;100.00;99816.31;5004863;28;20121;-76
2021/08/08 03:21:10;;;;;;;5.65;3.50;;;;;;;16.04;100.00;99821.22;4992292;28;20538;-76
2021/08/08 03:23:37;;;;;;;5.30;3.17;;;;;;;15.97;100.00;99818.28;4997048;28;20088;-76
2021/08/08 03:26:04;;;;;;;6.80;3.22;;;;;;;16.01;100.00;99822.34;4975923;28;20132;-77
2021/08/08 03:28:31;;;;;;;4.05;3.20;;;;;;;16.14;100.00;99824.69;4990083;28;20513;-76
2021/08/08 03:30:58;;;;;;;4.93;2.92;;;;;;;16.17;100.00;99827.88;4986389;28;20038;-76
2021/08/08 03:33:26;;;;;;;7.18;3.30;;;;;;;16.18;100.00;99813.63;4998384;28;20072;-75
2021/08/08 03:35:53;;;;;;;6.20;3.15;;;;;;;16.21;100.00;99828.44;5006327;28;20502;-76
2021/08/08 03:38:20;;;;;;;4.53;2.90;;;;;;;16.10;100.00;99816.16;5001092;28;20058;-75
2021/08/08 03:40:47;;;;;;;5.18;2.83;;;;;;;16.18;100.00;99826.06;4987060;28;20046;-76
2021/08/08 03:43:14;;;;;;;4.82;3.20;;;;;;;15.97;100.00;99833.38;4974809;28;20045;-75
2021/08/08 03:45:42;;;;;;;11.02;3.08;;;;;;;15.89;100.00;99836.75;5002065;28;20357;-75
2021/08/08 03:48:09;;;;;;;5.65;2.85;;;;;;;16.07;100.00;99843.00;5005844;28;20064;-75
2021/08/08 03:50:39;;;;;;;3.78;3.10;;;;;;;16.16;100.00;99851.91;4984755;28;20053;-75
2021/08/08 03:53:06;;;;;;;6.20;2.90;;;;;;;16.27;100.00;99851.75;4987918;28;20034;-75
2021/08/08 03:55:33;;;;;;;6.53;3.03;;;;;;;16.27;100.00;99851.75;4988097;28;20404;-75
2021/08/08 03:58:01;;;;;;;5.78;3.33;;;;;;;16.30;100.00;99853.25;4999710;28;20133;-76
2021/08/08 04:00:28;;;;;;;5.38;3.13;;;;;;;16.38;100.00;99864.00;5007537;28;20538;-75
2021/08/08 04:02:55;;;;;;;5.60;2.88;;;;;;;16.38;100.00;99864.00;5001040;28;20062;-75
2021/08/08 04:05:23;;;;;;;9.43;3.30;;;;;;;16.46;100.00;99866.75;4986158;28;20133;-76
2021/08/08 04:07:50;;;;;;;6.50;3.15;;;;;;;16.37;100.00;99868.47;4982528;28;20073;-75
2021/08/08 04:10:18;;;;;;;3.65;2.58;;;;;;;16.26;100.00;99871.31;4990063;28;20061;-75
2021/08/08 04:12:45;;;;;;;4.78;3.47;;;;;;;16.13;100.00;99882.25;4999742;28;20049;-75
2021/08/08 04:15:12;;;;;;;5.65;2.80;;;;;;;16.15;100.00;99882.94;4990071;28;20100;-75
2021/08/08 04:17:39;;;;;;;8.18;3.95;;;;;;;16.06;100.00;99877.66;4997338;28;20042;-76
2021/08/08 04:20:07;;;;;;;6.30;3.10;;;;;;;16.04;100.00;99884.94;4995485;28;20156;-75
2021/08/08 04:22:34;;;;;;;4.40;3.10;;;;;;;16.06;100.00;99891.78;4991912;28;20145;-75
2021/08/08 04:25:01;;;;;;;7.13;2.80;;;;;;;16.10;100.00;99882.53;5002327;28;20062;-76
2021/08/08 04:27:29;;;;;;;4.03;2.88;;;;;;;16.31;100.00;99895.63;4984233;28;20057;-76
2021/08/08 04:29:56;;;;;;;7.20;2.70;;;;;;;16.41;100.00;99895.59;4983113;28;20061;-76
2021/08/08 04:32:25;;;;;;;4.55;3.08;;;;;;;16.34;100.00;99905.94;4998420;28;20097;-75
2021/08/08 04:34:52;;;;;;;5.95;2.75;;;;;;;16.57;100.00;99900.25;4984139;28;20085;-77
2021/08/08 04:37:19;;;;;;;10.13;3.00;;;;;;;16.96;100.00;99901.78;4985003;28;20054;-75
2021/08/08 04:39:49;;;;;;;6.32;2.72;;;;;;;17.17;100.00;99898.84;4990233;28;20255;-76
2021/08/08 04:42:16;;;;;;;2.88;2.33;;;;;;;17.23;100.00;99899.22;4998383;28;20153;-76
2021/08/08 04:44:43;;;;;;;8.52;2.30;;;;;;;18.39;95.54;99898.19;5002597;28;20077;-75
2021/08/08 04:47:11;;;;;;;5.30;2.08;;;;;;;20.08;85.95;99897.06;5004804;28;20076;-75
2021/08/08 04:49:38;;;;;;;3.70;1.88;;;;;;;21.40;77.59;99897.25;5009813;28;20113;-75
2021/08/08 04:52:05;;;;;;;5.57;2.45;;;;;;;22.55;69.09;99901.56;5004067;28;20513;-75
2021/08/08 04:54:32;;;;;;;4.93;2.15;;;;;;;23.41;65.24;99895.38;4998677;28;20064;-76
2021/08/08 04:57:00;;;;;;;2.50;1.67;;;;;;;23.55;64.09;99900.88;5004464;28;20038;-75
2021/08/08 04:59:27;;;;;;;2.40;1.90;;;;;;;23.53;63.29;99898.41;4984747;28;20269;-75
2021/08/08 05:01:54;;;;;;;4.63;1.75;;;;;;;24.08;59.88;99896.81;4985180;28;20491;-76
2021/08/08 05:04:22;;;;;;;4.50;1.77;;;;;;;25.07;56.98;99903.78;4984559;28;20283;-76
2021/08/08 05:06:49;;;;;;;2.28;1.40;;;;;;;24.20;58.10;99900.63;5000706;28;20058;-76
2021/08/08 05:09:16;;;;;;;2.88;1.25;;;;;;;22.69;62.58;99906.91;4953865;28;20091;-76
2021/08/08 05:11:43;;;;;;;3.95;1.95;;;;;;;21.08;69.90;99905.44;4999240;28;20429;-76
2021/08/08 05:14:11;;;;;;;5.35;1.85;;;;;;;22.33;66.17;99912.19;5000453;28;20129;-76
2021/08/08 05:16:38;;;;;;;5.90;1.90;;;;;;;23.33;61.95;99916.19;4998719;28;20108;-76
2021/08/08 05:19:06;;;;;;;4.97;1.58;;;;;;;24.86;56.80;99913.66;4990539;28;20052;-75
2021/08/08 05:21:33;;;;;;;3.78;1.48;;;;;;;26.09;52.76;99918.94;5004161;28;20212;-74
2021/08/08 05:24:00;;;;;;;2.90;1.50;;;;;;;26.60;49.92;99923.63;4988889;28;20407;-74
2021/08/08 05:26:28;;;;;;;5.10;1.73;;;;;;;26.36;50.38;99931.34;5006072;28;20136;-76
2021/08/08 05:28:55;;;;;;;4.90;1.58;;;;;;;27.25;47.88;99929.84;4987310;28;20479;-75
2021/08/08 05:31:22;;;;;;;2.65;1.40;;;;;;;27.02;47.51;99941.16;4994090;28;20482;-76
2021/08/08 05:33:49;;;;;;;3.63;1.30;;;;;;;28.50;44.08;99940.78;4984214;28;20137;-75
2021/08/08 05:36:20;;;;;;;2.45;1.02;;;;;;;28.15;43.72;99943.19;5003705;28;20145;-76
2021/08/08 05:38:48;;;;;;;3.80;1.20;;;;;;;26.67;46.77;99959.56;4991943;28;20092;-76
2021/08/08 05:41:15;;;;;;;2.50;0.95;;;;;;;25.47;49.14;99961.34;5011311;28;20360;-76
2021/08/08 05:43:42;;;;;;;3.40;1.40;;;;;;;25.27;50.85;99965.84;5008379;28;20049;-77
2021/08/08 05:46:09;;;;;;;3.10;1.75;;;;;;;24.60;51.85;99973.56;5007612;28;20488;-75
2021/08/08 05:48:37;;;;;;;4.63;1.40;;;;;;;24.44;52.55;99972.00;5004561;28;20578;-77
2021/08/08 05:51:04;;;;;;;1.42;0.90;;;;;;;24.68;52.46;99981.50;5007693;28;20588;-76
2021/08/08 05:53:45;;;;;;;2.47;1.05;;;;;;;23.89;55.03;99986.22;5005471;28;20421;-76
2021/08/08 05:56:13;;;;;;;3.17;1.42;;;;;;;23.78;56.33;99989.44;5002394;28;20145;-75
2021/08/08 05:58:40;;;;;;;3.92;1.10;;;;;;;24.60;53.39;99984.34;5002644;28;20050;-75
2021/08/08 06:01:07;;;;;;;4.50;1.27;;;;;;;24.97;52.54;99984.97;5007884;28;20137;-76
2021/08/08 06:03:34;;;;;;;3.15;1.00;;;;;;;25.52;51.85;99973.16;4990719;28;20050;-77
2021/08/08 06:06:02;;;;;;;2.85;1.27;;;;;;;27.32;45.98;99983.88;4987126;28;20400;-76
2021/08/08 06:08:30;;;;;;;2.85;0.82;;;;;;;28.59;42.78;99981.94;4992177;28;20461;-76
2021/08/08 06:10:57;;;;;;;4.15;1.13;;;;;;;29.62;40.67;99981.16;5011126;28;20102;-76
2021/08/08 06:13:24;;;;;;;4.55;1.00;;;;;;;30.10;38.80;99986.47;5006909;28;20080;-77
2021/08/08 06:15:51;;;;;;;2.65;1.48;;;;;;;30.24;38.48;99985.22;5008557;28;20049;-77
2021/08/08 06:18:19;;;;;;;1.60;1.02;;;;;;;29.04;41.23;99987.94;4987063;28;20054;-78
2021/08/08 06:20:46;;;;;;;3.83;1.35;;;;;;;30.44;38.72;99984.88;5005071;28;20137;-78
2021/08/08 06:23:13;;;;;;;3.20;1.20;;;;;;;30.12;38.50;99978.09;5004835;28;20378;-78
2021/08/08 06:25:40;;;;;;;3.70;1.27;;;;;;;29.32;40.58;99983.84;4991847;28;20559;-76
2021/08/08 06:28:08;;;;;;;5.95;1.38;;;;;;;30.27;38.08;99986.66;4986268;28;20057;-77
2021/08/08 06:30:39;;;;;;;2.88;1.08;;;;;;;30.55;37.40;99983.22;4988581;28;20464;-77
2021/08/08 06:33:06;;;;;;;1.63;1.00;;;;;;;30.83;37.49;99979.78;4988264;28;20157;-78
2021/08/08 06:35:33;;;;;;;4.35;1.40;;;;;;;31.59;35.41;99987.84;5008745;28;20479;-77
2021/08/08 06:38:00;;;;;;;2.25;1.08;;;;;;;32.08;34.46;99983.56;4966140;28;20479;-77
2021/08/08 06:40:28;;;;;;;4.97;1.10;;;;;;;31.03;35.11;99984.84;4985970;28;20188;-80
2021/08/08 06:42:55;;;;;;;4.28;1.23;;;;;;;31.23;35.56;99995.28;4984211;28;20046;-79
2021/08/08 06:45:22;;;;;;;2.22;1.35;;;;;;;30.87;35.70;99993.72;4990604;28;20527;-78
2021/08/08 06:47:50;;;;;;;3.58;1.58;;;;;;;31.06;35.26;99995.22;4987539;28;20468;-81
2021/08/08 06:50:18;;;;;;;2.00;0.95;;;;;;;31.76;34.26;100000.44;5010984;28;20137;-78
2021/08/08 06:52:45;;;;;;;1.20;0.90;;;;;;;30.96;36.13;100003.16;4957527;28;20069;-81
2021/08/08 06:55:13;;;;;;;3.42;0.98;;;;;;;30.39;37.28;99992.06;4989715;28;20571;-79
2021/08/08 06:57:40;;;;;;;3.65;1.13;;;;;;;30.95;36.08;99999.63;5007180;28;20077;-77
2021/08/08 07:00:08;;;;;;;4.43;1.55;;;;;;;31.46;35.13;100002.56;5007679;28;20492;-80
2021/08/08 07:02:35;;;;;;;2.33;0.95;;;;;;;32.57;33.52;99999.34;5005816;28;20136;-83
2021/08/08 07:05:05;;;;;;;3.38;1.25;;;;;;;31.41;35.26;100005.19;4992733;28;20049;-84
2021/08/08 07:07:33;;;;;;;4.70;1.20;;;;;;;29.19;39.82;99995.69;4990805;28;20145;-82
2021/08/08 07:10:00;;;;;;;3.15;0.98;;;;;;;31.36;34.99;100007.81;4996357;28;20465;-81
2021/08/08 07:12:27;;;;;;;3.17;1.00;;;;;;;29.98;37.42;100010.03;4988339;28;20563;-80
2021/08/08 07:14:55;;;;;;;1.02;0.80;;;;;;;31.07;35.48;100015.06;4997504;28;20141;-81
2021/08/08 07:17:22;;;;;;;3.25;1.10;;;;;;;29.99;37.23;100012.53;5025170;28;20108;-82
2021/08/08 07:19:52;;;;;;;2.33;1.08;;;;;;;30.97;35.29;100021.94;4966999;28;20046;-86
2021/08/08 07:22:19;;;;;;;3.63;0.80;;;;;;;32.80;32.71;100014.66;4999349;28;21223;-80
2021/08/08 07:24:51;;;;;;;3.75;1.35;;;;;;;34.34;29.94;100028.94;4994554;28;20050;-79
2021/08/08 07:27:19;;;;;;;2.90;1.05;;;;;;;34.87;29.37;100024.41;4997443;28;20795;-80
2021/08/08 07:29:46;;;;;;;3.45;1.05;;;;;;;33.05;32.14;100031.38;4991039;28;20288;-82
2021/08/08 07:32:14;;;;;;;2.00;1.23;;;;;;;33.14;32.18;100034.47;5006832;28;20038;-81
2021/08/08 07:34:42;;;;;;;3.17;1.25;;;;;;;33.64;30.92;100030.72;4994029;28;20144;-80
2021/08/08 07:37:09;;;;;;;3.95;0.98;;;;;;;32.95;31.45;100039.44;4985370;28;20553;-79
2021/08/08 07:39:36;;;;;;;1.75;1.15;;;;;;;33.21;31.21;100040.59;5014212;28;20081;-80
2021/08/08 07:42:04;;;;;;;2.55;1.08;;;;;;;34.05;29.55;100034.75;4987991;28;20062;-85
2021/08/08 07:44:31;;;;;;;2.78;1.60;;;;;;;33.03;31.74;100039.00;4992727;28;20042;-81
2021/08/08 07:46:59;;;;;;;4.28;1.30;;;;;;;32.90;31.90;100036.59;4988144;28;20574;-79
2021/08/08 07:49:26;;;;;;;3.22;1.20;;;;;;;32.79;32.22;100034.81;5013276;28;20105;-82
2021/08/08 07:51:54;;;;;;;2.97;1.10;;;;;;;34.63;28.87;100041.22;4991478;28;20136;-79
2021/08/08 07:54:21;;;;;;;1.88;1.10;;;;;;;36.04;26.91;100051.41;4971656;28;20132;-79
2021/08/08 07:56:48;;;;;;;2.80;0.93;;;;;;;34.87;28.55;100049.03;4975004;28;20079;-79
2021/08/08 07:59:16;;;;;;;1.80;1.10;;;;;;;34.43;27.64;100051.97;5016344;28;20571;-83
2021/08/08 08:01:43;;;;;;;2.78;1.23;;;;;;;33.91;28.68;100060.75;5016921;28;20539;-79
2021/08/08 08:04:11;;;;;;;1.85;1.00;;;;;;;34.19;28.70;100063.25;4974628;28;20050;-79
2021/08/08 08:06:38;;;;;;;1.35;0.80;;;;;;;31.86;31.34;100069.75;5002079;28;21549;-83
2021/08/08 08:09:06;;;;;;;1.10;0.80;;;;;;;30.62;33.54;100067.31;4993688;28;20378;-83
2021/08/08 08:11:35;;;;;;;1.75;0.98;;;;;;;32.40;31.40;100068.28;5006721;28;20049;-86
2021/08/08 08:14:02;;;;;;;2.13;1.33;;;;;;;32.89;30.17;100062.22;4998242;28;20061;-82
2021/08/08 08:16:30;;;;;;;3.42;0.80;;;;;;;32.28;31.13;100064.78;5009073;28;20061;-83
2021/08/08 08:18:57;;;;;;;3.72;0.93;;;;;;;31.08;31.83;100076.56;4954259;28;20057;-82
2021/08/08 08:21:25;;;;;;;2.38;0.95;;;;;;;33.03;30.02;100070.91;4971496;28;20089;-85
2021/08/08 08:23:53;;;;;;;1.83;0.88;;;;;;;34.51;27.12;100073.41;4982286;28;20348;-82
2021/08/08 08:26:20;;;;;;;2.63;1.10;;;;;;;35.09;26.58;100076.25;4992387;28;20050;-82
2021/08/08 08:28:47;;;;;;;2.80;0.80;;;;;;;35.62;25.91;100074.28;4987538;28;20064;-87
2021/08/08 08:31:17;;;;;;;5.07;0.88;;;;;;;33.81;27.69;100074.31;5010977;28;20046;-86
2021/08/08 08:33:44;;;;;;;3.42;1.10;;;;;;;33.57;28.30;100071.88;4958655;28;20045;-84
2021/08/08 08:36:11;;;;;;;3.22;1.00;;;;;;;33.11;28.73;100075.91;4990001;28;20129;-84
2021/08/08 08:38:43;;;;;;;4.57;1.10;;;;;;;32.79;29.21;100073.81;4977436;28;20131;-83
2021/08/08 08:41:14;;;;;;;0.80;0.75;;;;;;;30.22;32.72;100081.56;4993508;28;20574;-81
2021/08/08 08:43:42;;;;;;;3.40;0.82;;;;;;;28.47;35.65;100082.03;4971783;28;20400;-81
2021/08/08 08:46:11;;;;;;;2.15;0.88;;;;;;;28.24;36.49;100075.31;4974907;28;20088;-84
2021/08/08 08:48:39;;;;;;;1.23;0.50;;;;;;;27.10;39.31;100086.00;5000700;28;20080;-84
2021/08/08 08:51:07;;;;;;;1.95;0.70;;;;;;;26.73;39.53;100089.13;4990200;28;20045;-80
2021/08/08 08:53:34;;;;;;;1.08;0.75;;;;;;;26.44;40.58;100079.59;4989820;28;20146;-86
2021/08/08 08:56:03;;;;;;;2.05;0.90;;;;;;;26.37;40.00;100089.53;4978858;28;20096;-86
2021/08/08 08:58:31;;;;;;;2.63;0.80;;;;;;;25.89;41.19;100091.50;4976431;28;20073;-86
2021/08/08 09:00:58;;;;;;;2.22;0.80;;;;;;;25.89;41.31;100091.50;4987790;28;20069;-87
2021/08/08 09:03:26;;;;;;;3.63;1.35;;;;;;;25.81;41.58;100080.91;4980186;28;20588;-82
2021/08/08 09:05:54;;;;;;;2.13;0.90;;;;;;;25.56;42.86;100089.50;5007706;28;20117;-84
2021/08/08 09:08:21;;;;;;;4.28;2.33;;;;;;;25.74;42.84;100097.03;5013381;28;20153;-84
2021/08/08 09:11:03;;;;;;;2.72;1.10;;;;;;;25.75;43.40;100085.19;4980322;28;20107;-87
2021/08/08 09:13:31;;;;;;;3.83;0.77;;;;;;;25.03;44.39;100089.19;5003733;28;20045;-89
2021/08/08 09:16:03;;;;;;;1.33;1.00;;;;;;;25.65;43.80;100096.38;4995159;28;20250;-90
2021/08/08 09:18:31;;;;;;;2.97;0.73;;;;;;;25.83;43.07;100105.81;4991790;28;20053;-89
2021/08/08 09:21:13;;;;;;;4.55;0.98;;;;;;;26.06;42.91;100098.19;5002111;28;20058;-87
2021/08/08 09:23:42;;;;;;;1.77;0.70;;;;;;;25.02;44.33;100104.50;4993220;28;20044;-84
2021/08/08 09:26:09;;;;;;;1.90;1.00;;;;;;;25.09;44.39;100111.84;4993382;28;20431;-82
2021/08/08 09:28:37;;;;;;;1.80;1.20;;;;;;;24.83;44.34;100112.47;4989113;28;20062;-83
2021/08/08 09:31:36;;;;;;;1.10;0.77;;;;;;;24.96;44.09;100113.38;4994993;28;20085;-81
2021/08/08 09:34:03;;;;;;;2.58;1.25;;;;;;;24.72;45.51;100116.50;4987801;28;20101;-83
2021/08/08 09:36:41;;;;;;;2.35;0.75;;;;;;;23.91;47.74;100113.19;5001145;28;20069;-85
2021/08/08 09:39:09;;;;;;;3.67;0.85;;;;;;;24.56;46.19;100120.31;4985503;28;20046;-85
2021/08/08 09:41:37;;;;;;;2.20;1.38;;;;;;;24.79;45.48;100119.25;5002733;28;20108;-83
2021/08/08 09:44:06;;;;;;;5.07;1.10;;;;;;;24.45;46.89;100118.13;4989597;28;20114;-80
2021/08/08 09:46:38;;;;;;;3.05;1.00;;;;;;;23.99;48.60;100131.91;5010143;28;20520;-82
2021/08/08 09:49:13;;;;;;;4.78;1.25;;;;;;;24.54;47.35;100135.78;4990345;28;20038;-84
2021/08/08 09:52:06;;;;;;;1.58;0.80;;;;;;;25.03;45.86;100137.66;4980022;28;21203;-83
2021/08/08 09:54:36;;;;;;;2.22;0.93;;;;;;;24.75;44.68;100134.97;4987345;28;20057;-83
2021/08/08 09:57:13;;;;;;;1.33;0.90;;;;;;;25.12;44.51;100141.06;5024694;28;20084;-90
2021/08/08 10:00:31;;;;;;;2.30;0.88;;;;;;;25.23;44.56;100140.53;5008674;28;20438;-90
2021/08/08 10:03:02;;;;;;;2.17;0.90;;;;;;;25.11;45.21;100137.53;5006449;28;20499;-93
2021/08/08 10:05:43;;;;;;;1.45;0.80;;;;;;;25.00;44.63;100138.06;4972528;28;20500;-84
2021/08/08 10:08:17;;;;;;;1.73;0.80;;;;;;;24.83;45.40;100148.28;4989834;28;20069;-83
2021/08/08 10:10:57;;;;;;;1.45;0.55;;;;;;;24.69;46.04;100144.66;4989558;28;20042;-82
2021/08/08 10:13:42;;;;;;;2.13;0.70;;;;;;;24.72;46.52;100149.66;5001412;28;20471;-80
2021/08/08 10:16:13;;;;;;;2.90;0.70;;;;;;;24.45;45.99;100155.78;5003522;28;20092;-89
2021/08/08 10:18:51;;;;;;;3.22;0.90;;;;;;;24.57;45.79;100161.50;5011301;28;20133;-86
2021/08/08 10:21:19;;;;;;;1.52;0.90;;;;;;;24.74;45.27;100157.53;4979965;28;20104;-86
2021/08/08 10:23:48;;;;;;;2.85;1.15;;;;;;;24.57;45.88;100162.34;4977771;28;20073;-84
2021/08/08 10:26:15;;;;;;;4.90;1.17;;;;;;;24.72;45.64;100152.34;4992041;28;20134;-86
2021/08/08 10:28:43;;;;;;;6.53;1.63;;;;;;;25.33;44.84;100165.25;4982263;28;20105;-84
2021/08/08 10:31:17;;;;;;;1.60;0.95;;;;;;;25.52;44.12;100156.44;5030052;28;20050;-83
2021/08/08 10:33:50;;;;;;;3.35;0.65;;;;;;;25.81;43.26;100168.03;4992821;28;20053;-85
2021/08/08 10:36:26;;;;;;;2.80;0.90;;;;;;;25.12;44.24;100173.38;5013097;28;20535;-84
2021/08/08 10:39:06;;;;;;;1.25;0.77;;;;;;;25.29;43.66;100179.31;4957574;28;20092;-82
2021/08/08 10:41:35;;;;;;;1.35;0.68;;;;;;;25.51;43.60;100175.50;5003367;28;20054;-83
2021/08/08 10:44:13;;;;;;;2.42;0.65;;;;;;;25.12;44.70;100182.28;5006685;28;20224;-84
2021/08/08 10:46:54;;;;;;;4.32;1.00;;;;;;;24.44;45.33;100200.69;4973241;28;20065;-83
2021/08/08 10:49:30;;;;;;;1.55;0.68;;;;;;;24.93;43.60;100188.34;4988676;28;20075;-82
2021/08/08 10:52:04;;;;;;;1.23;0.77;;;;;;;24.99;44.22;100184.84;4983845;28;20052;-82
2021/08/08 10:54:46;;;;;;;2.33;0.80;;;;;;;25.06;43.27;100193.00;5006997;28;20158;-83
2021/08/08 10:57:18;;;;;;;2.38;0.80;;;;;;;24.79;43.15;100186.56;4987434;28;20101;-84
2021/08/08 10:59:54;;;;;;;5.07;1.25;;;;;;;25.24;42.10;100194.19;4969976;28;20048;-82
2021/08/08 11:02:27;;;;;;;3.08;0.95;;;;;;;24.51;44.13;100192.72;4976704;28;20054;-80
2021/08/08 11:04:55;;;;;;;3.47;0.88;;;;;;;24.52;44.81;100182.78;4988546;28;20480;-80
2021/08/08 11:07:27;;;;;;;1.20;0.70;;;;;;;24.67;43.70;100187.06;4953697;28;20062;-82
2021/08/08 11:09:55;;;;;;;3.30;0.93;;;;;;;24.70;43.07;100186.69;5007692;28;20278;-80
2021/08/08 11:12:37;;;;;;;2.60;0.70;;;;;;;24.39;42.94;100197.75;4986183;28;20484;-81
2021/08/08 11:15:06;;;;;;;2.00;0.82;;;;;;;23.51;46.28;100204.03;4981505;28;20129;-79
2021/08/08 11:17:33;;;;;;;5.55;0.85;;;;;;;23.45;46.48;100200.22;4984942;28;20103;-81
2021/08/08 11:20:00;;;;;;;2.28;0.88;;;;;;;23.31;46.32;100211.78;5004707;28;20125;-80
2021/08/08 11:22:28;;;;;;;3.20;1.08;;;;;;;23.16;46.23;100206.41;5003908;28;20145;-80
2021/08/08 11:25:06;;;;;;;3.58;0.95;;;;;;;22.87;47.94;100211.66;4990731;28;20121;-80
2021/08/08 11:27:44;;;;;;;4.43;1.00;;;;;;;23.06;47.07;100216.56;4971842;28;20054;-80
2021/08/08 11:30:13;;;;;;;2.45;1.10;;;;;;;23.40;47.87;100220.59;4990804;28;20138;-81
2021/08/08 11:32:49;;;;;;;1.80;0.80;;;;;;;23.67;46.72;100222.69;4968321;28;20458;-82
2021/08/08 11:35:30;;;;;;;2.33;1.10;;;;;;;24.00;45.80;100224.97;4995426;28;20030;-82
2021/08/08 11:37:59;;;;;;;4.55;1.13;;;;;;;24.31;45.38;100226.59;4980745;28;20583;-84